sensor_id;sensor_type;location;lat;lon;timestamp;pressure;altitude;pressure_sealevel;temperature;humidity
68669;BME280;55652;49.454;7.798;2022-11-12T09:24:09;100223.78;;;24.17;50.69
68669;BME280;55652;49.454;7.798;2022-11-12T09:26:39;100225.97;;;24.27;50.82
68669;BME280;55652;49.454;7.798;2022-11-12T09:29:04;100218.88;;;24.37;51.14
68669;BME280;55652;49.454;7.798;2022-11-12T09:31:29;100215.13;;;24.50;50.79
68669;BME280;55652;49.454;7.798;2022-11-12T09:33:54;100210.75;;;24.61;50.81
68669;BME280;55652;49.454;7.798;2022-11-12T09:36:20;100213.75;;;24.71;50.81
68669;BME280;55652;49.454;7.798;2022-11-12T09:38:45;100223.06;;;24.82;50.46
68669;BME280;55652;49.454;7.798;2022-11-12T09:41:22;100217.22;;;24.90;50.30
68669;BME280;55652;49.454;7.798;2022-11-12T09:43:52;100213.06;;;24.99;50.28
68669;BME280;55652;49.454;7.798;2022-11-12T09:46:22;100210.34;;;25.11;50.25
68669;BME280;55652;49.454;7.798;2022-11-12T09:48:57;100211.44;;;25.22;49.96
68669;BME280;55652;49.454;7.798;2022-11-12T09:51:30;100214.97;;;25.34;49.68
68669;BME280;55652;49.454;7.798;2022-11-12T09:54:01;100217.34;;;25.42;49.74
68669;BME280;55652;49.454;7.798;2022-11-12T09:56:28;100213.19;;;25.52;49.19
68669;BME280;55652;49.454;7.798;2022-11-12T09:58:54;100207.56;;;25.58;49.02
68669;BME280;55652;49.454;7.798;2022-11-12T10:04:41;100215.13;;;25.80;48.42
68669;BME280;55652;49.454;7.798;2022-11-12T10:12:47;100223.56;;;26.02;48.38
68669;BME280;55652;49.454;7.798;2022-11-12T10:23:18;100202.69;;;26.29;47.00
68669;BME280;55652;49.454;7.798;2022-11-12T10:25:48;100203.63;;;26.35;45.49
68669;BME280;55652;49.454;7.798;2022-11-12T10:28:27;100200.72;;;26.42;45.58
68669;BME280;55652;49.454;7.798;2022-11-12T10:30:59;100192.50;;;26.42;45.65
68669;BME280;55652;49.454;7.798;2022-11-12T10:33:30;100192.09;;;26.50;45.02
68669;BME280;55652;49.454;7.798;2022-11-12T10:38:36;100191.22;;;26.61;44.61
68669;BME280;55652;49.454;7.798;2022-11-12T10:41:21;100191.53;;;26.65;44.72
68669;BME280;55652;49.454;7.798;2022-11-12T10:44:08;100177.09;;;26.69;44.80
68669;BME280;55652;49.454;7.798;2022-11-12T10:46:38;100187.03;;;26.75;44.87
68669;BME280;55652;49.454;7.798;2022-11-12T10:51:37;100180.59;;;26.82;44.95
68669;BME280;55652;49.454;7.798;2022-11-12T10:56:52;100171.09;;;26.89;44.95
68669;BME280;55652;49.454;7.798;2022-11-12T10:59:18;100164.50;;;26.90;44.50
68669;BME280;55652;49.454;7.798;2022-11-12T11:01:46;100160.44;;;26.93;44.24
68669;BME280;55652;49.454;7.798;2022-11-12T11:04:31;100160.53;;;26.98;44.04
68669;BME280;55652;49.454;7.798;2022-11-12T11:07:06;100155.63;;;27.00;43.45
68669;BME280;55652;49.454;7.798;2022-11-12T11:09:53;100153.44;;;27.02;43.92
68669;BME280;55652;49.454;7.798;2022-11-12T11:12:33;100153.78;;;27.06;43.91
68669;BME280;55652;49.454;7.798;2022-11-12T11:17:42;100155.78;;;27.10;43.95
68669;BME280;55652;49.454;7.798;2022-11-12T11:20:30;100150.00;;;27.12;44.00
68669;BME280;55652;49.454;7.798;2022-11-12T11:23:12;100139.59;;;27.14;44.17
68669;BME280;55652;49.454;7.798;2022-11-12T11:25:41;100148.19;;;27.17;44.05
68669;BME280;55652;49.454;7.798;2022-11-12T11:31:01;100132.31;;;27.19;44.01
68669;BME280;55652;49.454;7.798;2022-11-12T11:33:41;100132.88;;;27.21;44.16
68669;BME280;55652;49.454;7.798;2022-11-12T11:41:46;100129.03;;;27.22;44.33
68669;BME280;55652;49.454;7.798;2022-11-12T11:49:52;100125.28;;;27.29;44.10
68669;BME280;55652;49.454;7.798;2022-11-12T11:52:31;100124.22;;;27.30;44.14
68669;BME280;55652;49.454;7.798;2022-11-12T12:03:19;100115.31;;;27.22;43.74
68669;BME280;55652;49.454;7.798;2022-11-12T12:11:20;100111.34;;;27.13;43.95
68669;BME280;55652;49.454;7.798;2022-11-12T12:16:54;100109.19;;;27.37;44.07
68669;BME280;55652;49.454;7.798;2022-11-12T12:22:00;100106.31;;;27.27;44.57
68669;BME280;55652;49.454;7.798;2022-11-12T12:24:58;100104.69;;;27.26;44.47
68669;BME280;55652;49.454;7.798;2022-11-12T12:27:31;100099.13;;;27.21;44.55
68669;BME280;55652;49.454;7.798;2022-11-12T12:30:06;100097.25;;;27.27;44.50
68669;BME280;55652;49.454;7.798;2022-11-12T12:35:27;100097.88;;;27.34;44.11
68669;BME280;55652;49.454;7.798;2022-11-12T12:43:11;100097.69;;;27.40;43.38
68669;BME280;55652;49.454;7.798;2022-11-12T12:45:44;100087.59;;;27.46;41.84
68669;BME280;55652;49.454;7.798;2022-11-12T12:48:31;100084.84;;;27.46;40.75
68669;BME280;55652;49.454;7.798;2022-11-12T12:50:57;100082.09;;;27.46;40.77
68669;BME280;55652;49.454;7.798;2022-11-12T12:55:54;100076.84;;;27.39;41.06
68669;BME280;55652;49.454;7.798;2022-11-12T12:58:30;100076.50;;;27.36;41.06
68669;BME280;55652;49.454;7.798;2022-11-12T13:08:51;100059.91;;;27.26;41.17
68669;BME280;55652;49.454;7.798;2022-11-12T13:14:44;100055.44;;;27.19;41.09
68669;BME280;55652;49.454;7.798;2022-11-12T13:17:40;100049.38;;;27.17;40.99
68669;BME280;55652;49.454;7.798;2022-11-12T15:37:41;99958.94;;;24.86;48.10
68669;BME280;55652;49.454;7.798;2022-11-12T15:40:17;99952.75;;;24.91;48.43
68669;BME280;55652;49.454;7.798;2022-11-12T15:42:43;99961.88;;;24.96;48.36
68669;BME280;55652;49.454;7.798;2022-11-12T15:45:18;99957.59;;;25.00;48.19
68669;BME280;55652;49.454;7.798;2022-11-12T15:47:44;99962.09;;;25.07;48.21
68669;BME280;55652;49.454;7.798;2022-11-12T15:50:19;99959.19;;;25.13;48.10
68669;BME280;55652;49.454;7.798;2022-11-12T15:52:47;99958.00;;;25.21;47.98
68669;BME280;55652;49.454;7.798;2022-11-12T15:55:14;99953.22;;;25.28;47.89
68669;BME280;55652;49.454;7.798;2022-11-12T15:57:48;99947.66;;;25.40;47.66
68669;BME280;55652;49.454;7.798;2022-11-12T16:00:25;99943.47;;;25.49;47.45
68669;BME280;55652;49.454;7.798;2022-11-12T16:02:58;99943.78;;;25.53;47.51
68669;BME280;55652;49.454;7.798;2022-11-12T16:05:27;99946.63;;;25.58;47.36
68669;BME280;55652;49.454;7.798;2022-11-12T16:07:52;99939.56;;;25.62;47.32
68669;BME280;55652;49.454;7.798;2022-11-12T16:10:18;99940.16;;;25.64;47.48
68669;BME280;55652;49.454;7.798;2022-11-12T16:12:45;99945.47;;;25.70;47.01
68669;BME280;55652;49.454;7.798;2022-11-12T16:15:14;99942.06;;;25.80;46.88
68669;BME280;55652;49.454;7.798;2022-11-12T16:17:40;99941.69;;;25.88;46.60
68669;BME280;55652;49.454;7.798;2022-11-12T16:20:20;99939.09;;;25.99;46.65
68669;BME280;55652;49.454;7.798;2022-11-12T16:22:46;99937.00;;;26.06;46.78
68669;BME280;55652;49.454;7.798;2022-11-12T16:25:12;99944.47;;;26.10;46.75
68669;BME280;55652;49.454;7.798;2022-11-12T16:27:39;99937.16;;;26.16;46.41
68669;BME280;55652;49.454;7.798;2022-11-12T16:32:39;99935.06;;;26.23;46.14
68669;BME280;55652;49.454;7.798;2022-11-12T16:35:04;99931.31;;;26.29;45.97
68669;BME280;55652;49.454;7.798;2022-11-12T16:37:31;99936.28;;;26.32;45.67
68669;BME280;55652;49.454;7.798;2022-11-12T16:39:57;99934.72;;;26.36;45.57
68669;BME280;55652;49.454;7.798;2022-11-12T16:42:22;99931.47;;;26.40;45.50
68669;BME280;55652;49.454;7.798;2022-11-12T16:44:47;99932.13;;;26.47;45.38
68669;BME280;55652;49.454;7.798;2022-11-12T16:47:13;99938.53;;;26.52;45.66
68669;BME280;55652;49.454;7.798;2022-11-12T16:49:38;99924.31;;;26.55;45.49
68669;BME280;55652;49.454;7.798;2022-11-12T16:52:05;99926.78;;;26.57;45.74
68669;BME280;55652;49.454;7.798;2022-11-12T16:54:30;99924.38;;;26.61;45.57
68669;BME280;55652;49.454;7.798;2022-11-12T16:56:55;99916.97;;;26.61;45.83
68669;BME280;55652;49.454;7.798;2022-11-12T16:59:20;99923.91;;;26.69;45.68
68669;BME280;55652;49.454;7.798;2022-11-12T17:01:46;99924.22;;;26.72;45.51
68669;BME280;55652;49.454;7.798;2022-11-12T17:04:11;99920.41;;;26.73;45.15
68669;BME280;55652;49.454;7.798;2022-11-12T17:06:39;99921.47;;;26.72;44.85
68669;BME280;55652;49.454;7.798;2022-11-12T17:09:08;99929.19;;;26.75;44.79
68669;BME280;55652;49.454;7.798;2022-11-12T17:11:34;99932.72;;;26.71;45.12
68669;BME280;55652;49.454;7.798;2022-11-12T17:14:00;99929.19;;;26.75;45.17
68669;BME280;55652;49.454;7.798;2022-11-12T17:16:26;99928.56;;;26.68;45.23
68669;BME280;55652;49.454;7.798;2022-11-12T17:18:53;99934.56;;;26.65;45.35
68669;BME280;55652;49.454;7.798;2022-11-12T17:21:18;99932.66;;;26.66;45.19
68669;BME280;55652;49.454;7.798;2022-11-12T17:23:44;99934.88;;;26.69;45.09
68669;BME280;55652;49.454;7.798;2022-11-12T17:26:13;99932.97;;;26.69;44.94
68669;BME280;55652;49.454;7.798;2022-11-12T17:28:39;99933.53;;;26.71;44.98
68669;BME280;55652;49.454;7.798;2022-11-12T17:31:16;99938.53;;;26.74;44.78
68669;BME280;55652;49.454;7.798;2022-11-12T17:33:50;99932.50;;;26.77;44.85
68669;BME280;55652;49.454;7.798;2022-11-12T17:36:19;99946.00;;;26.79;44.84
68669;BME280;55652;49.454;7.798;2022-11-12T17:38:45;99939.22;;;26.87;44.90
68669;BME280;55652;49.454;7.798;2022-11-12T17:41:11;99934.34;;;26.94;44.85
68669;BME280;55652;49.454;7.798;2022-11-12T17:43:37;99932.69;;;26.93;44.86
68669;BME280;55652;49.454;7.798;2022-11-12T17:46:04;99926.75;;;27.01;44.68
68669;BME280;55652;49.454;7.798;2022-11-12T17:48:32;99932.50;;;26.99;45.00
68669;BME280;55652;49.454;7.798;2022-11-12T17:51:14;99933.19;;;27.12;44.58
68669;BME280;55652;49.454;7.798;2022-11-12T17:53:40;99932.88;;;27.08;44.73
68669;BME280;55652;49.454;7.798;2022-11-12T17:56:08;99938.88;;;27.05;44.71
68669;BME280;55652;49.454;7.798;2022-11-12T17:58:34;99940.53;;;27.06;44.63
68669;BME280;55652;49.454;7.798;2022-11-12T18:01:21;99940.16;;;27.19;44.64
68669;BME280;55652;49.454;7.798;2022-11-12T18:03:50;99936.94;;;27.28;44.34
68669;BME280;55652;49.454;7.798;2022-11-12T18:06:20;99925.91;;;27.22;44.40
68669;BME280;55652;49.454;7.798;2022-11-12T18:08:45;99918.69;;;27.16;44.45
68669;BME280;55652;49.454;7.798;2022-11-12T18:11:13;99918.69;;;27.16;44.44
68669;BME280;55652;49.454;7.798;2022-11-12T18:13:39;99918.69;;;27.16;44.60
68669;BME280;55652;49.454;7.798;2022-11-12T18:18:45;99902.81;;;27.18;44.43
68669;BME280;55652;49.454;7.798;2022-11-12T18:21:11;99913.28;;;27.21;44.33
68669;BME280;55652;49.454;7.798;2022-11-12T18:23:41;99917.78;;;27.33;44.38
68669;BME280;55652;49.454;7.798;2022-11-12T18:26:08;99916.66;;;27.34;44.51
68669;BME280;55652;49.454;7.798;2022-11-12T18:28:34;99904.63;;;27.35;45.13
68669;BME280;55652;49.454;7.798;2022-11-12T18:31:02;99916.19;;;27.42;45.22
68669;BME280;55652;49.454;7.798;2022-11-12T18:33:28;99913.81;;;27.51;45.72
68669;BME280;55652;49.454;7.798;2022-11-12T18:36:04;99907.28;;;27.57;45.48
68669;BME280;55652;49.454;7.798;2022-11-12T18:38:32;99904.31;;;27.63;45.91
68669;BME280;55652;49.454;7.798;2022-11-12T18:41:00;99895.00;;;27.70;45.17
68669;BME280;55652;49.454;7.798;2022-11-12T18:43:26;99897.47;;;27.71;45.17
68669;BME280;55652;49.454;7.798;2022-11-12T18:45:55;99902.44;;;27.69;45.82
68669;BME280;55652;49.454;7.798;2022-11-12T18:48:20;99904.66;;;27.72;45.98
68669;BME280;55652;49.454;7.798;2022-11-12T18:50:46;99900.81;;;27.73;46.27
68669;BME280;55652;49.454;7.798;2022-11-12T18:53:11;99891.19;;;27.76;46.57
68669;BME280;55652;49.454;7.798;2022-11-12T18:55:36;99884.97;;;27.80;46.85
68669;BME280;55652;49.454;7.798;2022-11-12T18:58:02;99884.44;;;27.83;47.15
68669;BME280;55652;49.454;7.798;2022-11-12T19:00:28;99886.16;;;28.00;49.45
68669;BME280;55652;49.454;7.798;2022-11-12T19:02:53;99884.03;;;27.70;47.90
68669;BME280;55652;49.454;7.798;2022-11-12T19:05:18;99872.59;;;27.45;46.08
68669;BME280;55652;49.454;7.798;2022-11-12T19:07:46;99870.38;;;27.42;44.66
68669;BME280;55652;49.454;7.798;2022-11-12T19:10:11;99873.63;;;27.39;44.92
68669;BME280;55652;49.454;7.798;2022-11-12T19:12:36;99876.63;;;27.38;44.81
68669;BME280;55652;49.454;7.798;2022-11-12T19:15:02;99874.94;;;27.32;44.98
68669;BME280;55652;49.454;7.798;2022-11-12T19:17:27;99875.19;;;27.30;42.57
68669;BME280;55652;49.454;7.798;2022-11-12T19:19:53;99883.09;;;27.21;42.34
68669;BME280;55652;49.454;7.798;2022-11-12T19:22:18;99879.38;;;27.11;43.35
68669;BME280;55652;49.454;7.798;2022-11-12T19:24:43;99885.59;;;27.01;42.79
68669;BME280;55652;49.454;7.798;2022-11-12T19:27:08;99876.84;;;27.04;42.48
68669;BME280;55652;49.454;7.798;2022-11-12T19:29:34;99884.06;;;27.10;42.04
68669;BME280;55652;49.454;7.798;2022-11-12T19:31:59;99875.00;;;27.15;41.24
68669;BME280;55652;49.454;7.798;2022-11-12T19:34:24;99880.06;;;27.23;40.35
68669;BME280;55652;49.454;7.798;2022-11-12T19:36:50;99873.22;;;27.26;40.30
68669;BME280;55652;49.454;7.798;2022-11-12T19:39:15;99871.63;;;27.30;39.59
68669;BME280;55652;49.454;7.798;2022-11-12T19:41:40;99874.66;;;27.33;40.91
68669;BME280;55652;49.454;7.798;2022-11-12T19:44:06;99866.75;;;27.37;41.10
68669;BME280;55652;49.454;7.798;2022-11-12T19:46:31;99862.28;;;27.31;41.22
68669;BME280;55652;49.454;7.798;2022-11-12T19:48:57;99864.97;;;27.26;41.41
68669;BME280;55652;49.454;7.798;2022-11-12T19:51:22;99864.97;;;27.26;41.48
68669;BME280;55652;49.454;7.798;2022-11-12T19:53:48;99867.72;;;27.26;41.37
68669;BME280;55652;49.454;7.798;2022-11-12T19:56:15;99860.59;;;27.25;41.66
68669;BME280;55652;49.454;7.798;2022-11-12T19:58:46;99864.16;;;27.25;41.62
68669;BME280;55652;49.454;7.798;2022-11-12T20:01:14;99859.63;;;27.41;41.78
68669;BME280;55652;49.454;7.798;2022-11-12T20:03:40;99847.28;;;27.43;42.08
68669;BME280;55652;49.454;7.798;2022-11-12T20:06:13;99845.97;;;27.51;42.19
68669;BME280;55652;49.454;7.798;2022-11-12T20:08:39;99853.94;;;27.48;42.91
